Time;durP1;ratioP1;P1;durP2;ratioP2;P2;SDS_P1;SDS_P2;PMS_P1;PMS_P2;Temp;Humidity;BMP_temperature;BMP_pressure;BME280_temperature;BME280_humidity;BME280_pressure;Samples;Min_cycle;Max_cycle;Signal;HPM_P1;HPM_P2
2022/12/31 00:02:09;;;;;;;0.50;0.30;;;13.60;99.90;;;;;;5032550;28;20108;-77
2022/12/31 00:04:35;;;;;;;0.50;0.20;;;13.60;99.90;;;;;;5032358;28;20449;-77
2022/12/31 00:07:00;;;;;;;0.57;0.28;;;13.60;99.90;;;;;;5022244;28;20037;-77
2022/12/31 00:09:26;;;;;;;0.28;0.17;;;13.70;99.90;;;;;;5032588;28;20456;-77
2022/12/31 00:11:52;;;;;;;0.28;0.20;;;13.70;99.90;;;;;;5014582;28;20040;-76
2022/12/31 00:14:17;;;;;;;0.40;0.28;;;13.70;99.90;;;;;;5032468;28;20456;-76
2022/12/31 00:16:43;;;;;;;0.43;0.28;;;13.70;99.90;;;;;;5032402;28;20048;-77
2022/12/31 00:19:10;;;;;;;0.30;0.20;;;13.70;99.90;;;;;;5014798;28;20482;-76
2022/12/31 00:21:37;;;;;;;0.30;0.20;;;13.70;99.90;;;;;;5014515;28;20022;-77
2022/12/31 00:24:04;;;;;;;0.50;0.25;;;13.70;99.90;;;;;;5032278;28;20029;-76
2022/12/31 00:26:31;;;;;;;1.40;0.40;;;13.80;99.90;;;;;;5032215;28;20032;-77
2022/12/31 00:28:59;;;;;;;0.50;0.30;;;13.70;99.90;;;;;;5048498;28;20032;-76
2022/12/31 00:31:30;;;;;;;0.47;0.30;;;13.70;99.90;;;;;;5029373;28;20026;-78
2022/12/31 00:33:56;;;;;;;0.40;0.20;;;13.80;99.90;;;;;;5025811;28;20128;-77
2022/12/31 00:36:25;;;;;;;2.05;0.50;;;13.70;99.90;;;;;;5008420;28;20037;-78
2022/12/31 00:38:53;;;;;;;0.57;0.30;;;13.80;99.90;;;;;;5030744;28;20093;-78
2022/12/31 00:41:19;;;;;;;0.68;0.30;;;13.80;99.90;;;;;;5007352;28;20541;-78
2022/12/31 00:43:46;;;;;;;0.40;0.28;;;13.80;99.90;;;;;;5024100;28;20057;-78
2022/12/31 00:46:12;;;;;;;1.05;0.30;;;13.80;99.90;;;;;;5030413;28;20059;-78
2022/12/31 00:48:38;;;;;;;0.85;0.20;;;13.80;99.90;;;;;;5028400;28;20038;-77
2022/12/31 00:51:07;;;;;;;0.80;0.30;;;13.80;99.90;;;;;;5006371;28;20078;-78
2022/12/31 00:53:33;;;;;;;0.30;0.20;;;13.80;99.90;;;;;;5029021;28;20100;-78
2022/12/31 00:56:22;;;;;;;1.33;0.60;;;13.90;99.90;;;;;;5012244;28;20029;-78
2022/12/31 00:58:48;;;;;;;0.90;0.30;;;13.90;99.90;;;;;;5027073;28;20132;-77
2022/12/31 01:01:26;;;;;;;0.47;0.30;;;13.80;99.90;;;;;;5023881;28;20120;-77
2022/12/31 01:03:54;;;;;;;0.43;0.20;;;13.80;99.90;;;;;;5026402;28;20026;-77
2022/12/31 01:06:20;;;;;;;0.60;0.32;;;13.80;99.90;;;;;;5013326;28;20025;-77
2022/12/31 01:08:48;;;;;;;0.75;0.20;;;13.80;99.90;;;;;;5027533;28;20032;-78
2022/12/31 01:11:23;;;;;;;0.63;0.30;;;13.80;99.90;;;;;;4986166;23;20050;-81
2022/12/31 01:13:57;;;;;;;0.80;0.40;;;13.80;99.90;;;;;;4973286;28;20496;-83
2022/12/31 01:16:23;;;;;;;;;;;13.80;99.90;;;;;;4980735;28;20120;-81
2022/12/31 01:18:49;;;;;;;3.13;0.40;;;13.90;99.90;;;;;;4972177;28;20321;-81
2022/12/31 01:21:16;;;;;;;1.95;0.52;;;13.90;99.90;;;;;;4971150;28;20111;-81
2022/12/31 01:23:42;;;;;;;0.30;0.20;;;13.90;99.90;;;;;;4969925;28;20118;-81
2022/12/31 01:26:11;;;;;;;1.50;0.35;;;13.90;99.90;;;;;;4976206;28;20162;-81
2022/12/31 01:28:36;;;;;;;0.95;0.30;;;13.90;99.90;;;;;;4973917;28;20077;-83
2022/12/31 01:31:08;;;;;;;0.75;0.28;;;13.80;99.90;;;;;;4978586;28;20030;-81
2022/12/31 01:33:35;;;;;;;0.43;0.38;;;13.80;99.90;;;;;;4954793;28;20034;-81
2022/12/31 01:36:11;;;;;;;0.85;0.40;;;13.80;99.90;;;;;;4969731;28;20403;-81
2022/12/31 01:38:38;;;;;;;0.73;0.45;;;13.80;99.90;;;;;;4971622;28;20030;-81
2022/12/31 01:41:04;;;;;;;0.52;0.22;;;13.80;99.90;;;;;;4971651;28;20027;-82
2022/12/31 01:43:58;;;;;;;0.88;0.30;;;13.80;99.90;;;;;;4959094;28;20026;-82
2022/12/31 01:46:50;;;;;;;1.02;0.38;;;13.80;99.90;;;;;;4976261;28;20022;-82
2022/12/31 01:49:22;;;;;;;1.40;0.50;;;13.80;99.90;;;;;;4979627;28;20038;-82
2022/12/31 01:51:55;;;;;;;0.50;0.30;;;13.80;99.90;;;;;;4977374;28;20031;-82
2022/12/31 01:54:24;;;;;;;0.75;0.40;;;13.80;99.90;;;;;;4973283;28;20058;-82
2022/12/31 01:57:04;;;;;;;2.05;0.55;;;13.80;99.90;;;;;;4960790;28;20031;-81
2022/12/31 01:59:30;;;;;;;0.32;0.22;;;13.90;99.90;;;;;;4978613;28;20026;-82
2022/12/31 02:01:56;;;;;;;1.85;0.40;;;13.90;99.90;;;;;;4974418;28;20109;-82
2022/12/31 02:04:24;;;;;;;2.17;0.40;;;13.90;99.90;;;;;;4985289;28;20027;-81
2022/12/31 02:06:57;;;;;;;1.90;0.35;;;13.80;99.90;;;;;;4979977;28;20030;-82
2022/12/31 02:09:22;;;;;;;1.10;0.38;;;13.80;99.90;;;;;;4977751;28;20443;-83
2022/12/31 02:11:49;;;;;;;1.33;0.57;;;13.80;99.90;;;;;;4986123;28;20014;-82
2022/12/31 02:14:16;;;;;;;1.10;0.38;;;13.90;99.90;;;;;;5000392;28;20015;-82
2022/12/31 02:17:04;;;;;;;0.30;0.30;;;13.80;99.90;;;;;;5003255;28;20065;-83
2022/12/31 02:19:35;;;;;;;0.57;0.32;;;13.80;99.90;;;;;;5001349;28;20010;-82
2022/12/31 02:22:18;;;;;;;1.90;0.52;;;13.80;99.90;;;;;;4981545;28;20047;-82
2022/12/31 02:24:49;;;;;;;0.65;0.30;;;14.00;99.90;;;;;;5003025;28;20077;-82
2022/12/31 02:27:29;;;;;;;0.47;0.40;;;14.00;99.90;;;;;;4998506;28;20026;-82
2022/12/31 02:30:01;;;;;;;1.90;0.38;;;14.00;99.90;;;;;;4997066;28;20022;-81
2022/12/31 02:32:49;;;;;;;1.98;0.60;;;14.20;99.90;;;;;;4988747;28;20037;-81
2022/12/31 02:35:33;;;;;;;0.40;0.30;;;14.30;99.90;;;;;;4974175;28;20043;-82
2022/12/31 02:38:09;;;;;;;0.40;0.20;;;14.30;99.90;;;;;;4958072;28;20388;-82
2022/12/31 02:40:37;;;;;;;2.92;0.50;;;14.30;99.90;;;;;;4970552;28;20043;-82
2022/12/31 02:43:03;;;;;;;0.85;0.40;;;14.30;99.90;;;;;;4976821;28;20027;-82
2022/12/31 02:45:37;;;;;;;0.43;0.30;;;14.30;99.90;;;;;;4982454;28;20023;-81
2022/12/31 02:48:35;;;;;;;2.03;0.60;;;14.30;99.90;;;;;;4965491;28;20029;-83
2022/12/31 02:51:35;;;;;;;0.63;0.50;;;14.30;99.90;;;;;;4968449;28;20022;-83
2022/12/31 02:54:07;;;;;;;1.05;0.40;;;14.40;99.90;;;;;;4946018;28;20035;-83
2022/12/31 02:56:37;;;;;;;1.20;0.30;;;14.40;99.90;;;;;;4982100;28;20026;-82
2022/12/31 03:02:13;;;;;;;1.92;0.30;;;14.50;99.90;;;;;;4985830;28;20112;-80
2022/12/31 03:04:45;;;;;;;0.80;0.57;;;14.50;99.90;;;;;;4990369;28;20585;-82
2022/12/31 03:07:13;;;;;;;0.30;0.30;;;14.40;99.90;;;;;;4981128;28;20039;-83
2022/12/31 03:09:38;;;;;;;1.63;0.40;;;14.40;99.90;;;;;;4979294;28;20015;-82
2022/12/31 03:14:51;;;;;;;1.33;0.63;;;14.50;99.90;;;;;;4974540;28;20084;-82
2022/12/31 03:17:17;;;;;;;1.77;0.40;;;14.50;99.90;;;;;;4980525;28;20109;-82
2022/12/31 03:22:27;;;;;;;1.40;0.47;;;14.50;99.90;;;;;;4977409;28;20038;-83
2022/12/31 03:27:48;;;;;;;0.30;0.30;;;14.60;99.90;;;;;;4972351;28;20073;-83
2022/12/31 03:30:16;;;;;;;0.75;0.30;;;14.60;99.90;;;;;;4976127;28;20442;-83
2022/12/31 03:32:43;;;;;;;1.00;0.30;;;14.60;99.90;;;;;;4956934;28;20022;-83
2022/12/31 03:35:11;;;;;;;1.15;0.40;;;14.60;99.90;;;;;;4959321;28;20105;-84
2022/12/31 03:37:38;;;;;;;1.38;0.20;;;14.60;99.90;;;;;;4971562;28;20120;-83
2022/12/31 03:40:06;;;;;;;0.30;0.30;;;14.60;99.90;;;;;;4972785;28;20034;-83
2022/12/31 03:42:31;;;;;;;0.40;0.30;;;14.60;99.90;;;;;;4976887;28;20034;-83
2022/12/31 03:44:57;;;;;;;0.60;0.22;;;14.60;99.90;;;;;;4975477;28;20031;-83
2022/12/31 03:47:22;;;;;;;0.30;0.30;;;14.60;99.90;;;;;;4955803;28;20026;-83
2022/12/31 03:49:48;;;;;;;0.77;0.40;;;14.60;99.90;;;;;;4975927;28;20023;-83
2022/12/31 03:52:14;;;;;;;0.95;0.40;;;14.60;99.90;;;;;;4974523;28;20061;-83
2022/12/31 03:54:39;;;;;;;2.72;0.20;;;14.60;99.90;;;;;;4976443;28;20034;-83
2022/12/31 03:57:05;;;;;;;0.70;0.30;;;14.60;99.90;;;;;;4954929;28;20058;-83
2022/12/31 03:59:31;;;;;;;1.55;0.22;;;14.60;99.90;;;;;;4970643;28;20105;-83
2022/12/31 04:01:56;;;;;;;0.60;0.30;;;14.60;99.90;;;;;;4976061;28;20027;-83
2022/12/31 04:04:22;;;;;;;0.40;0.30;;;14.70;99.90;;;;;;4954311;28;20031;-83
2022/12/31 04:06:48;;;;;;;0.75;0.25;;;14.70;99.90;;;;;;4972350;28;20420;-83
2022/12/31 04:09:13;;;;;;;0.40;0.25;;;14.80;99.90;;;;;;4971037;28;20030;-83
2022/12/31 04:11:39;;;;;;;1.35;0.38;;;14.80;99.90;;;;;;4970317;28;20027;-83
2022/12/31 04:14:04;;;;;;;1.70;0.30;;;14.80;99.90;;;;;;4959836;28;20030;-83
2022/12/31 04:16:31;;;;;;;0.73;0.30;;;14.90;99.90;;;;;;4973314;28;20031;-83
2022/12/31 04:18:57;;;;;;;1.05;0.30;;;14.90;99.90;;;;;;4974555;28;20030;-83
2022/12/31 04:21:22;;;;;;;0.20;0.10;;;14.90;99.90;;;;;;4970743;28;20546;-83
2022/12/31 04:23:48;;;;;;;0.30;0.20;;;15.00;99.90;;;;;;4955600;28;20026;-83
2022/12/31 04:26:14;;;;;;;0.45;0.30;;;15.00;99.90;;;;;;4974934;28;20027;-82
2022/12/31 04:28:39;;;;;;;0.28;0.28;;;15.00;99.90;;;;;;4971380;28;20121;-83
2022/12/31 04:31:05;;;;;;;0.45;0.30;;;15.00;99.90;;;;;;4978534;28;20049;-83
2022/12/31 04:33:30;;;;;;;0.20;0.20;;;15.00;99.90;;;;;;4973755;28;20027;-83
2022/12/31 04:36:01;;;;;;;0.73;0.20;;;15.00;99.90;;;;;;4955531;28;20041;-83
2022/12/31 04:38:28;;;;;;;0.40;0.20;;;15.00;99.90;;;;;;4978840;28;20031;-83
2022/12/31 04:43:38;;;;;;;2.28;0.30;;;14.90;99.90;;;;;;4974240;28;20028;-82
2022/12/31 04:46:04;;;;;;;0.40;0.20;;;14.90;99.90;;;;;;4971670;28;20023;-82
2022/12/31 04:48:29;;;;;;;1.02;0.30;;;14.80;99.90;;;;;;4970371;28;20023;-83
2022/12/31 04:50:55;;;;;;;0.32;0.32;;;14.80;99.90;;;;;;4973594;28;20038;-82
2022/12/31 04:53:21;;;;;;;0.55;0.20;;;14.70;99.90;;;;;;4976024;28;20041;-83
2022/12/31 04:55:47;;;;;;;0.40;0.20;;;14.60;99.90;;;;;;4970135;28;20029;-83
2022/12/31 04:58:13;;;;;;;1.20;0.30;;;14.60;99.90;;;;;;4973118;28;20035;-83
2022/12/31 05:00:38;;;;;;;0.28;0.25;;;14.50;99.90;;;;;;4950820;28;20126;-83
2022/12/31 05:03:04;;;;;;;0.30;0.30;;;14.50;99.90;;;;;;4952943;28;20105;-83
2022/12/31 05:05:29;;;;;;;0.30;0.20;;;14.50;99.90;;;;;;4974572;28;20406;-83
2022/12/31 05:07:55;;;;;;;0.45;0.30;;;14.40;99.90;;;;;;4974457;28;20030;-83
2022/12/31 05:10:20;;;;;;;0.47;0.30;;;14.40;99.90;;;;;;4955516;28;20123;-83
2022/12/31 05:12:46;;;;;;;0.20;0.13;;;14.30;99.90;;;;;;4978446;28;20031;-83
2022/12/31 05:15:12;;;;;;;0.40;0.30;;;14.40;99.90;;;;;;4971216;28;20030;-83
2022/12/31 05:17:38;;;;;;;0.70;0.20;;;14.30;99.90;;;;;;4975546;28;20030;-83
2022/12/31 05:20:04;;;;;;;0.70;0.30;;;14.40;99.90;;;;;;4966002;28;20092;-82
2022/12/31 05:22:30;;;;;;;0.25;0.25;;;14.40;99.90;;;;;;4977036;28;20030;-83
2022/12/31 05:24:59;;;;;;;0.50;0.30;;;14.40;99.90;;;;;;4973758;28;20395;-83
2022/12/31 05:27:27;;;;;;;2.05;0.30;;;14.50;99.90;;;;;;4964225;28;20026;-83
2022/12/31 05:29:52;;;;;;;0.47;0.30;;;14.60;99.90;;;;;;4975067;28;20029;-82
2022/12/31 05:32:18;;;;;;;1.58;0.47;;;14.60;99.90;;;;;;4965232;28;20492;-83
2022/12/31 05:34:44;;;;;;;1.38;0.40;;;14.50;99.90;;;;;;4975425;28;20058;-83
2022/12/31 05:37:10;;;;;;;0.55;0.30;;;14.40;99.90;;;;;;4973638;28;20038;-83
2022/12/31 05:39:36;;;;;;;0.68;0.40;;;14.40;99.90;;;;;;4973894;28;20031;-83
2022/12/31 05:42:02;;;;;;;0.60;0.32;;;14.30;99.90;;;;;;4977027;28;20030;-83
2022/12/31 05:44:27;;;;;;;0.30;0.30;;;14.30;99.90;;;;;;4976426;28;20480;-83
2022/12/31 05:46:53;;;;;;;0.93;0.38;;;14.20;99.90;;;;;;4956780;28;20054;-83
2022/12/31 05:49:18;;;;;;;0.73;0.45;;;14.10;99.90;;;;;;4973143;28;20026;-83
2022/12/31 05:51:44;;;;;;;0.65;0.50;;;14.10;99.90;;;;;;4964851;28;20031;-83
2022/12/31 05:54:09;;;;;;;2.60;0.50;;;14.00;99.90;;;;;;4978516;28;20085;-83
2022/12/31 05:56:35;;;;;;;1.15;0.50;;;14.00;99.90;;;;;;4972860;28;20077;-83
2022/12/31 05:59:01;;;;;;;1.05;0.70;;;14.00;99.90;;;;;;4957142;28;20111;-83
2022/12/31 06:01:26;;;;;;;0.82;0.40;;;13.90;99.90;;;;;;4979247;28;20085;-84
2022/12/31 06:03:52;;;;;;;1.80;0.47;;;13.90;99.90;;;;;;4973268;28;20031;-83
2022/12/31 06:06:17;;;;;;;1.05;0.38;;;13.80;99.90;;;;;;4974508;28;20029;-83
2022/12/31 06:08:43;;;;;;;0.73;0.40;;;13.80;99.90;;;;;;4978672;28;20577;-83
2022/12/31 06:11:09;;;;;;;0.50;0.30;;;13.80;99.90;;;;;;4961248;28;20031;-83
2022/12/31 06:13:34;;;;;;;0.82;0.40;;;13.80;99.90;;;;;;4956789;28;20089;-83
2022/12/31 06:16:07;;;;;;;1.08;0.40;;;13.80;99.90;;;;;;4975196;28;20030;-83
2022/12/31 06:18:33;;;;;;;0.50;0.30;;;13.80;99.90;;;;;;4972589;28;20030;-84
2022/12/31 06:20:58;;;;;;;1.75;0.40;;;13.80;99.90;;;;;;4974578;28;20026;-84
2022/12/31 06:23:24;;;;;;;1.60;0.35;;;13.80;99.90;;;;;;4955940;28;20031;-82
2022/12/31 06:25:50;;;;;;;0.73;0.40;;;13.80;99.90;;;;;;4967247;28;20015;-83
2022/12/31 06:28:15;;;;;;;0.90;0.30;;;13.80;99.90;;;;;;4960286;28;20072;-82
2022/12/31 06:30:41;;;;;;;0.68;0.40;;;13.80;99.90;;;;;;4975660;28;20034;-83
2022/12/31 06:33:06;;;;;;;0.73;0.50;;;13.80;99.90;;;;;;4974365;28;20031;-83
2022/12/31 06:35:32;;;;;;;2.03;0.43;;;13.70;99.90;;;;;;4957093;28;20479;-83
2022/12/31 06:37:58;;;;;;;0.57;0.40;;;13.70;99.90;;;;;;4953826;28;20042;-83
2022/12/31 06:40:23;;;;;;;1.17;0.30;;;13.70;99.90;;;;;;4973674;28;20037;-82
2022/12/31 06:42:49;;;;;;;1.55;0.52;;;13.70;99.90;;;;;;4959297;28;20427;-83
2022/12/31 06:45:15;;;;;;;0.77;0.50;;;13.80;99.90;;;;;;4975681;28;20027;-83
2022/12/31 06:47:40;;;;;;;1.30;0.45;;;13.80;99.90;;;;;;4977008;28;20494;-83
2022/12/31 06:50:07;;;;;;;0.60;0.50;;;13.80;99.90;;;;;;4961653;28;20555;-83
2022/12/31 06:52:32;;;;;;;1.02;0.30;;;13.80;99.90;;;;;;4960998;28;20078;-83
2022/12/31 06:54:58;;;;;;;0.57;0.38;;;13.90;99.90;;;;;;4969772;28;20513;-83
2022/12/31 06:57:24;;;;;;;0.75;0.43;;;13.90;99.90;;;;;;4970530;28;20049;-83
2022/12/31 06:59:50;;;;;;;0.55;0.30;;;13.80;99.90;;;;;;4978962;28;20462;-83
2022/12/31 07:02:29;;;;;;;0.47;0.30;;;13.80;99.90;;;;;;4974957;28;20117;-83
2022/12/31 07:05:04;;;;;;;0.90;0.47;;;13.80;99.90;;;;;;4964598;28;20034;-83
2022/12/31 07:07:29;;;;;;;2.13;0.50;;;13.80;99.90;;;;;;4972381;28;20042;-82
2022/12/31 07:13:11;;;;;;;2.65;0.50;;;13.80;99.90;;;;;;5027033;28;20048;-86
2022/12/31 07:15:54;;;;;;;1.15;0.57;;;13.80;99.90;;;;;;5033221;28;20060;-85
2022/12/31 07:18:34;;;;;;;0.60;0.60;;;13.80;99.90;;;;;;5037054;28;20029;-85
2022/12/31 07:21:00;;;;;;;1.83;0.45;;;13.80;99.90;;;;;;5016590;28;20132;-84
2022/12/31 07:23:26;;;;;;;1.13;0.65;;;13.80;99.90;;;;;;5007192;28;20077;-82
2022/12/31 07:26:06;;;;;;;1.02;0.47;;;13.80;99.90;;;;;;5003354;28;20065;-84
2022/12/31 07:28:54;;;;;;;0.90;0.50;;;13.80;99.90;;;;;;5008974;28;20449;-84
2022/12/31 07:32:13;;;;;;;1.27;0.40;;;13.80;99.90;;;;;;4991315;28;20061;-83
2022/12/31 07:35:18;;;;;;;0.60;0.50;;;13.80;99.90;;;;;;4912258;29;20156;-83
2022/12/31 07:37:58;;;;;;;1.83;0.50;;;13.80;99.90;;;;;;4965838;28;20049;-82
2022/12/31 07:40:53;;;;;;;2.13;0.95;;;13.80;99.90;;;;;;5006127;28;20096;-84
2022/12/31 07:43:45;;;;;;;1.83;0.60;;;13.80;99.90;;;;;;5005326;28;20034;-85
2022/12/31 07:46:11;;;;;;;1.02;0.60;;;13.90;99.90;;;;;;5001697;28;20040;-83
2022/12/31 07:48:37;;;;;;;1.45;0.70;;;13.90;99.90;;;;;;4988749;28;20023;-83
2022/12/31 07:51:03;;;;;;;1.00;0.47;;;13.90;99.90;;;;;;5010292;28;20553;-82
2022/12/31 07:53:29;;;;;;;1.25;0.50;;;13.90;99.90;;;;;;5006705;28;20076;-79
2022/12/31 07:56:00;;;;;;;1.10;0.70;;;14.00;99.90;;;;;;4987718;28;20033;-83
2022/12/31 07:58:51;;;;;;;1.85;0.70;;;14.00;99.90;;;;;;4981451;28;20387;-82
2022/12/31 08:01:47;;;;;;;0.98;0.57;;;14.00;99.90;;;;;;5002014;28;20061;-82
2022/12/31 08:04:24;;;;;;;0.90;0.43;;;14.10;99.90;;;;;;4966472;28;20371;-83
2022/12/31 08:07:03;;;;;;;0.55;0.50;;;14.10;99.90;;;;;;4992373;28;20105;-79
2022/12/31 08:09:41;;;;;;;2.67;1.20;;;14.20;99.90;;;;;;4997480;28;20096;-80
2022/12/31 08:12:07;;;;;;;1.25;0.60;;;14.20;99.90;;;;;;5000562;28;20038;-81
2022/12/31 08:14:41;;;;;;;2.28;0.80;;;14.30;99.90;;;;;;5004139;28;20032;-78
2022/12/31 08:17:11;;;;;;;1.75;0.60;;;14.30;99.90;;;;;;4992520;28;20112;-80
2022/12/31 08:19:37;;;;;;;3.22;0.40;;;14.40;99.90;;;;;;5007419;28;20057;-81
2022/12/31 08:22:39;;;;;;;1.38;0.50;;;14.40;99.90;;;;;;5001792;28;20065;-81
2022/12/31 08:25:24;;;;;;;1.05;0.57;;;14.40;99.90;;;;;;5009637;28;20097;-80
2022/12/31 08:27:59;;;;;;;1.73;0.73;;;14.50;99.90;;;;;;4989972;28;21637;-83
2022/12/31 08:30:40;;;;;;;1.55;0.50;;;14.50;99.90;;;;;;4999892;28;20101;-80
2022/12/31 08:33:27;;;;;;;1.23;0.50;;;14.50;99.90;;;;;;4987761;28;20406;-83
2022/12/31 08:35:56;;;;;;;1.00;0.50;;;14.60;99.90;;;;;;4986335;28;20076;-81
2022/12/31 08:38:46;;;;;;;0.75;0.40;;;14.60;99.90;;;;;;5005750;28;20026;-83
2022/12/31 08:41:34;;;;;;;2.00;0.45;;;14.60;99.90;;;;;;5006333;28;20034;-83
2022/12/31 08:44:08;;;;;;;1.27;0.70;;;14.60;99.90;;;;;;5006789;28;20053;-84
2022/12/31 08:46:37;;;;;;;0.95;0.65;;;14.60;99.90;;;;;;5004552;28;20445;-83
2022/12/31 08:49:03;;;;;;;1.10;0.60;;;14.70;99.90;;;;;;5009409;28;20026;-84
2022/12/31 08:51:29;;;;;;;2.45;0.60;;;14.70;99.90;;;;;;5006873;28;20270;-83
2022/12/31 08:53:55;;;;;;;2.33;0.60;;;14.80;99.90;;;;;;4984260;28;20879;-83
2022/12/31 08:56:27;;;;;;;1.02;0.50;;;14.90;99.90;;;;;;5008608;28;20064;-84
2022/12/31 08:59:00;;;;;;;1.45;0.60;;;15.00;99.90;;;;;;5011939;28;20030;-86
2022/12/31 09:01:29;;;;;;;0.40;0.40;;;15.10;99.90;;;;;;5012457;28;20068;-86
2022/12/31 09:04:20;;;;;;;1.20;0.60;;;15.20;99.90;;;;;;5014088;28;20026;-86
2022/12/31 09:07:04;;;;;;;1.15;0.40;;;15.30;99.90;;;;;;5013051;28;20068;-86
2022/12/31 09:09:41;;;;;;;1.95;0.70;;;15.40;99.90;;;;;;4993872;28;20072;-87
2022/12/31 09:12:31;;;;;;;2.17;0.88;;;15.50;99.90;;;;;;5004930;28;20033;-86
2022/12/31 09:15:24;;;;;;;1.15;0.65;;;15.50;99.90;;;;;;5012832;28;20068;-86
2022/12/31 09:17:51;;;;;;;0.40;0.30;;;15.60;99.90;;;;;;5000406;28;20034;-85
2022/12/31 09:20:19;;;;;;;2.30;0.40;;;15.70;99.90;;;;;;5006952;28;20113;-87
2022/12/31 09:22:45;;;;;;;1.75;0.50;;;15.70;99.90;;;;;;5009487;28;20321;-87
2022/12/31 09:25:14;;;;;;;1.63;0.47;;;15.80;99.90;;;;;;4992340;28;20070;-88
2022/12/31 09:28:01;;;;;;;1.85;1.00;;;15.80;99.90;;;;;;4992314;28;20029;-90
2022/12/31 09:30:29;;;;;;;1.70;0.85;;;15.90;99.90;;;;;;5010012;28;20029;-84
2022/12/31 09:33:15;;;;;;;2.50;0.75;;;15.90;99.90;;;;;;4993197;28;20026;-86
2022/12/31 09:35:56;;;;;;;3.70;0.80;;;15.90;99.90;;;;;;4997819;28;20025;-87
2022/12/31 09:38:29;;;;;;;1.05;0.47;;;16.00;99.90;;;;;;4992992;28;20018;-86
2022/12/31 09:41:13;;;;;;;2.30;0.60;;;16.10;99.90;;;;;;4993197;28;20037;-86
2022/12/31 09:44:03;;;;;;;1.37;0.60;;;16.10;99.90;;;;;;4995385;28;20151;-85
2022/12/31 09:46:51;;;;;;;0.65;0.40;;;16.20;99.90;;;;;;5012525;28;20362;-88
2022/12/31 09:49:53;;;;;;;1.65;0.73;;;16.20;99.90;;;;;;4999648;28;20394;-89
2022/12/31 09:52:29;;;;;;;0.80;0.50;;;16.30;99.90;;;;;;5015897;28;20034;-86
2022/12/31 09:55:34;;;;;;;1.98;0.95;;;16.40;99.90;;;;;;4993500;28;20120;-86
2022/12/31 09:58:26;;;;;;;1.05;0.65;;;16.40;99.90;;;;;;4992219;28;20038;-86
2022/12/31 10:00:54;;;;;;;3.40;0.80;;;16.40;99.90;;;;;;4979915;28;20045;-85
2022/12/31 10:03:56;;;;;;;1.20;0.50;;;16.50;99.90;;;;;;5033269;28;20034;-85
2022/12/31 10:06:45;;;;;;;1.58;0.60;;;16.50;99.90;;;;;;5035767;28;20132;-85
2022/12/31 10:09:40;;;;;;;1.05;0.40;;;16.60;99.90;;;;;;5020368;28;20032;-85
2022/12/31 10:12:12;;;;;;;1.08;0.60;;;16.60;99.90;;;;;;5032201;28;20010;-85
2022/12/31 10:15:16;;;;;;;1.30;0.30;;;16.70;99.90;;;;;;5028217;28;20030;-85
2022/12/31 10:18:11;;;;;;;2.42;0.30;;;16.70;99.90;;;;;;5026587;28;20014;-84
2022/12/31 10:20:36;;;;;;;0.75;0.40;;;16.80;99.90;;;;;;5027362;28;20033;-84
2022/12/31 10:23:35;;;;;;;0.90;0.40;;;16.80;99.90;;;;;;5031939;28;20018;-86
2022/12/31 10:26:03;;;;;;;1.85;0.40;;;16.90;99.90;;;;;;5014823;28;20025;-86
2022/12/31 10:28:57;;;;;;;3.05;0.77;;;16.90;99.90;;;;;;5028604;28;20010;-88
2022/12/31 10:32:00;;;;;;;1.10;0.60;;;16.90;99.90;;;;;;5011179;28;20030;-85
2022/12/31 10:34:44;;;;;;;0.55;0.40;;;16.90;99.90;;;;;;5001832;28;20042;-85
2022/12/31 10:37:15;;;;;;;2.05;0.60;;;16.90;99.90;;;;;;5031214;28;20021;-86
2022/12/31 10:39:52;;;;;;;1.40;0.52;;;16.90;99.90;;;;;;5023400;28;20034;-88
2022/12/31 10:42:38;;;;;;;0.60;0.30;;;16.90;99.90;;;;;;5022866;28;20021;-84
2022/12/31 10:45:17;;;;;;;0.80;0.40;;;17.00;99.90;;;;;;4987403;28;20037;-84
2022/12/31 10:48:03;;;;;;;0.45;0.22;;;17.10;99.90;;;;;;5027013;28;20030;-85
2022/12/31 10:50:47;;;;;;;1.10;0.50;;;17.10;99.90;;;;;;5034344;28;20482;-84
2022/12/31 10:53:38;;;;;;;1.40;0.43;;;17.10;99.90;;;;;;5028671;28;20013;-84
2022/12/31 10:56:20;;;;;;;1.35;0.40;;;17.20;99.90;;;;;;5008822;28;20010;-89
2022/12/31 10:58:57;;;;;;;1.00;0.40;;;17.20;99.90;;;;;;5030914;28;20029;-88
2022/12/31 11:01:49;;;;;;;2.28;0.47;;;17.20;99.90;;;;;;5008685;28;20030;-87
2022/12/31 11:04:42;;;;;;;2.25;0.50;;;17.20;99.90;;;;;;5016352;28;20022;-88
2022/12/31 11:07:36;;;;;;;1.38;0.60;;;17.30;99.90;;;;;;5033381;28;20069;-90
2022/12/31 11:10:35;;;;;;;1.50;0.77;;;17.40;99.90;;;;;;5014175;28;20034;-76
2022/12/31 11:13:38;;;;;;;3.10;0.60;;;17.40;99.90;;;;;;5030470;28;20036;-77
2022/12/31 11:16:19;;;;;;;0.45;0.45;;;17.60;99.90;;;;;;5015275;28;20057;-82
2022/12/31 11:19:13;;;;;;;1.58;0.60;;;17.80;99.90;;;;;;5029499;28;20041;-87
2022/12/31 11:22:20;;;;;;;0.98;0.50;;;17.80;99.90;;;;;;5014864;28;20010;-89
2022/12/31 11:25:16;;;;;;;1.10;0.65;;;17.80;99.90;;;;;;5025560;28;20138;-87
2022/12/31 11:28:11;;;;;;;0.70;0.40;;;17.80;99.90;;;;;;5017237;28;20038;-87
2022/12/31 11:30:45;;;;;;;0.70;0.45;;;17.80;99.90;;;;;;5027870;28;20041;-87
2022/12/31 11:33:30;;;;;;;2.20;0.63;;;17.80;99.90;;;;;;5012786;28;20114;-86
2022/12/31 11:36:22;;;;;;;0.50;0.40;;;17.80;99.90;;;;;;5035572;28;20013;-87
2022/12/31 11:38:59;;;;;;;0.55;0.40;;;17.80;99.90;;;;;;5012808;28;20038;-87
2022/12/31 11:41:45;;;;;;;2.38;0.82;;;17.80;99.90;;;;;;5010884;28;20061;-87
2022/12/31 11:44:59;;;;;;;1.77;0.50;;;17.80;99.90;;;;;;5027823;28;20045;-87
2022/12/31 11:48:08;;;;;;;0.68;0.40;;;17.90;99.90;;;;;;5018644;28;20026;-87
2022/12/31 11:50:54;;;;;;;0.57;0.50;;;18.00;99.90;;;;;;5031363;28;20085;-86
2022/12/31 11:53:22;;;;;;;0.85;0.50;;;18.00;99.90;;;;;;5030157;28;20014;-87
2022/12/31 11:56:17;;;;;;;1.35;0.65;;;18.00;99.90;;;;;;5032728;28;20022;-86
2022/12/31 11:58:54;;;;;;;2.05;0.70;;;18.00;99.90;;;;;;5032527;28;20018;-87
2022/12/31 12:02:00;;;;;;;2.38;0.90;;;18.00;99.90;;;;;;5007877;28;20029;-87
2022/12/31 12:04:26;;;;;;;0.98;0.50;;;18.00;99.90;;;;;;5025022;28;20018;-87
2022/12/31 12:06:52;;;;;;;2.53;0.47;;;18.00;99.90;;;;;;5013339;28;20014;-86
2022/12/31 12:09:30;;;;;;;1.20;0.40;;;18.10;99.90;;;;;;5018399;28;20014;-86
2022/12/31 12:12:04;;;;;;;0.77;0.50;;;18.10;99.90;;;;;;5029732;28;20050;-86
2022/12/31 12:14:34;;;;;;;1.38;0.70;;;18.10;99.90;;;;;;5015431;28;20029;-87
2022/12/31 12:17:02;;;;;;;0.82;0.40;;;18.10;99.90;;;;;;5006032;28;20021;-87
2022/12/31 12:19:30;;;;;;;0.95;0.40;;;18.20;99.90;;;;;;5011393;28;20014;-87
2022/12/31 12:21:57;;;;;;;0.82;0.35;;;18.20;99.90;;;;;;5008752;28;20050;-86
2022/12/31 12:24:28;;;;;;;2.10;0.30;;;18.30;99.90;;;;;;5016520;28;20029;-87
2022/12/31 12:26:56;;;;;;;2.75;0.50;;;18.30;99.90;;;;;;5031839;28;20041;-87
2022/12/31 12:29:23;;;;;;;3.85;0.50;;;18.30;99.90;;;;;;5011246;28;20025;-86
2022/12/31 12:32:06;;;;;;;0.95;0.43;;;18.30;99.90;;;;;;5030114;28;20041;-84
2022/12/31 12:34:38;;;;;;;1.88;0.52;;;18.30;99.90;;;;;;5030379;28;20353;-87
2022/12/31 12:37:20;;;;;;;0.70;0.40;;;18.30;99.90;;;;;;5030677;28;20021;-87
2022/12/31 12:39:57;;;;;;;2.53;0.50;;;18.40;99.90;;;;;;5008366;28;20038;-86
2022/12/31 12:42:23;;;;;;;2.60;0.40;;;18.50;99.90;;;;;;5009482;28;20038;-88
2022/12/31 12:45:04;;;;;;;2.45;0.60;;;18.50;99.90;;;;;;5023159;28;20029;-81
2022/12/31 12:47:30;;;;;;;1.13;0.47;;;18.50;99.90;;;;;;5009233;28;20025;-81
2022/12/31 12:49:55;;;;;;;2.40;0.75;;;18.50;99.90;;;;;;5021258;28;20025;-81
2022/12/31 12:52:58;;;;;;;0.88;0.70;;;18.50;99.90;;;;;;5023149;28;20167;-81
2022/12/31 12:55:37;;;;;;;0.82;0.60;;;18.50;99.90;;;;;;5024443;28;20018;-82
2022/12/31 12:58:16;;;;;;;1.48;0.70;;;18.40;99.90;;;;;;5021954;28;20026;-87
2022/12/31 13:00:49;;;;;;;1.15;0.50;;;18.40;99.90;;;;;;5011486;28;20035;-87
2022/12/31 13:03:49;;;;;;;1.52;0.30;;;18.40;99.90;;;;;;5021302;28;20380;-87
2022/12/31 13:06:59;;;;;;;1.05;0.40;;;18.30;99.90;;;;;;5015584;28;20034;-87
2022/12/31 13:09:39;;;;;;;2.55;0.38;;;18.30;99.90;;;;;;4989469;28;20026;-87
2022/12/31 13:12:21;;;;;;;0.65;0.50;;;18.20;99.90;;;;;;5003445;23;20487;-84
2022/12/31 13:15:04;;;;;;;1.30;0.70;;;18.20;99.90;;;;;;5002487;28;20476;-84
2022/12/31 13:17:54;;;;;;;1.90;0.57;;;18.20;99.90;;;;;;5008165;28;20034;-82
2022/12/31 13:20:34;;;;;;;1.17;0.60;;;18.20;99.90;;;;;;4986815;28;20112;-86
2022/12/31 13:23:25;;;;;;;1.02;0.50;;;18.10;99.90;;;;;;4968630;28;20506;-86
2022/12/31 13:26:03;;;;;;;4.53;1.30;;;18.10;99.90;;;;;;4987177;28;20038;-86
2022/12/31 13:28:30;;;;;;;2.15;0.70;;;18.10;99.90;;;;;;4985990;28;20026;-85
2022/12/31 13:31:00;;;;;;;0.45;0.32;;;18.10;99.90;;;;;;4987652;28;20044;-85
2022/12/31 13:33:37;;;;;;;0.50;0.40;;;18.00;99.90;;;;;;4989960;28;20270;-86
2022/12/31 13:36:07;;;;;;;2.70;0.82;;;18.00;99.90;;;;;;4988699;28;20402;-86
2022/12/31 13:38:40;;;;;;;1.10;0.60;;;18.00;99.90;;;;;;4989510;28;20079;-86
2022/12/31 13:41:24;;;;;;;;;;;18.00;99.90;;;;;;4989939;28;20033;-85
2022/12/31 13:44:17;;;;;;;1.35;0.80;;;17.90;99.90;;;;;;4989548;28;20754;-85